sensor_id;sensor_type;location;lat;lon;timestamp;P1;durP1;ratioP1;P2;durP2;ratioP2
74632;SDS011;63139;52.018;8.552;2023-01-30T00:01:01;48.33;;;21.45;;
74632;SDS011;63139;52.018;8.552;2023-01-30T00:03:31;46.30;;;22.00;;
74632;SDS011;63139;52.018;8.552;2023-01-30T00:05:59;44.40;;;20.50;;
74632;SDS011;63139;52.018;8.552;2023-01-30T00:08:30;41.42;;;21.02;;
74632;SDS011;63139;52.018;8.552;2023-01-30T00:11:02;44.33;;;21.42;;
74632;SDS011;63139;52.018;8.552;2023-01-30T00:13:31;43.80;;;21.98;;
74632;SDS011;63139;52.018;8.552;2023-01-30T00:15:59;44.60;;;22.17;;
74632;SDS011;63139;52.018;8.552;2023-01-30T00:18:28;40.58;;;19.50;;
74632;SDS011;63139;52.018;8.552;2023-01-30T00:20:56;45.65;;;21.88;;
74632;SDS011;63139;52.018;8.552;2023-01-30T00:23:25;41.88;;;20.67;;
74632;SDS011;63139;52.018;8.552;2023-01-30T00:25:53;47.72;;;21.98;;
74632;SDS011;63139;52.018;8.552;2023-01-30T00:28:21;48.22;;;21.95;;
74632;SDS011;63139;52.018;8.552;2023-01-30T00:30:51;46.65;;;21.48;;
74632;SDS011;63139;52.018;8.552;2023-01-30T00:33:22;48.60;;;23.00;;
74632;SDS011;63139;52.018;8.552;2023-01-30T00:35:53;46.58;;;23.70;;
74632;SDS011;63139;52.018;8.552;2023-01-30T00:38:22;43.65;;;21.17;;
74632;SDS011;63139;52.018;8.552;2023-01-30T00:40:52;46.00;;;21.83;;
74632;SDS011;63139;52.018;8.552;2023-01-30T00:43:20;44.50;;;21.35;;
74632;SDS011;63139;52.018;8.552;2023-01-30T00:46:23;45.78;;;22.20;;
74632;SDS011;63139;52.018;8.552;2023-01-30T00:49:13;45.20;;;20.35;;
74632;SDS011;63139;52.018;8.552;2023-01-30T00:51:44;46.85;;;21.40;;
74632;SDS011;63139;52.018;8.552;2023-01-30T00:54:12;50.25;;;21.58;;
74632;SDS011;63139;52.018;8.552;2023-01-30T00:56:40;46.28;;;20.90;;
74632;SDS011;63139;52.018;8.552;2023-01-30T00:59:10;49.55;;;23.48;;
74632;SDS011;63139;52.018;8.552;2023-01-30T01:01:39;46.10;;;21.85;;
74632;SDS011;63139;52.018;8.552;2023-01-30T01:04:07;43.20;;;21.27;;
74632;SDS011;63139;52.018;8.552;2023-01-30T01:06:35;51.88;;;24.08;;
74632;SDS011;63139;52.018;8.552;2023-01-30T01:09:03;50.88;;;22.42;;
74632;SDS011;63139;52.018;8.552;2023-01-30T01:11:32;52.28;;;23.38;;
74632;SDS011;63139;52.018;8.552;2023-01-30T01:14:00;48.97;;;23.00;;
74632;SDS011;63139;52.018;8.552;2023-01-30T01:16:29;47.85;;;22.77;;
74632;SDS011;63139;52.018;8.552;2023-01-30T01:19:03;50.92;;;23.80;;
74632;SDS011;63139;52.018;8.552;2023-01-30T01:21:33;49.42;;;23.15;;
74632;SDS011;63139;52.018;8.552;2023-01-30T01:24:00;52.30;;;23.58;;
74632;SDS011;63139;52.018;8.552;2023-01-30T01:26:28;50.05;;;23.92;;
74632;SDS011;63139;52.018;8.552;2023-01-30T01:28:56;49.10;;;23.27;;
74632;SDS011;63139;52.018;8.552;2023-01-30T01:31:26;60.00;;;25.70;;
74632;SDS011;63139;52.018;8.552;2023-01-30T01:33:56;54.50;;;23.85;;
74632;SDS011;63139;52.018;8.552;2023-01-30T01:36:27;54.78;;;26.52;;
74632;SDS011;63139;52.018;8.552;2023-01-30T01:39:17;62.05;;;25.70;;
74632;SDS011;63139;52.018;8.552;2023-01-30T01:41:48;52.58;;;22.88;;
74632;SDS011;63139;52.018;8.552;2023-01-30T01:44:14;51.00;;;22.88;;
74632;SDS011;63139;52.018;8.552;2023-01-30T01:46:44;52.50;;;23.85;;
74632;SDS011;63139;52.018;8.552;2023-01-30T01:49:16;52.90;;;22.75;;
74632;SDS011;63139;52.018;8.552;2023-01-30T01:51:53;48.60;;;20.70;;
74632;SDS011;63139;52.018;8.552;2023-01-30T01:54:26;50.08;;;22.83;;
74632;SDS011;63139;52.018;8.552;2023-01-30T01:56:59;56.70;;;23.83;;
74632;SDS011;63139;52.018;8.552;2023-01-30T01:59:33;57.83;;;26.40;;
74632;SDS011;63139;52.018;8.552;2023-01-30T02:02:08;57.20;;;25.92;;
74632;SDS011;63139;52.018;8.552;2023-01-30T02:04:41;52.25;;;22.92;;
74632;SDS011;63139;52.018;8.552;2023-01-30T02:07:35;56.35;;;25.10;;
74632;SDS011;63139;52.018;8.552;2023-01-30T02:10:04;60.67;;;25.23;;
74632;SDS011;63139;52.018;8.552;2023-01-30T02:12:34;58.97;;;25.67;;
74632;SDS011;63139;52.018;8.552;2023-01-30T02:15:04;59.83;;;26.67;;
74632;SDS011;63139;52.018;8.552;2023-01-30T02:17:33;56.90;;;24.80;;
74632;SDS011;63139;52.018;8.552;2023-01-30T02:20:02;60.13;;;26.75;;
74632;SDS011;63139;52.018;8.552;2023-01-30T02:25:50;57.75;;;24.45;;
74632;SDS011;63139;52.018;8.552;2023-01-30T02:31:46;60.35;;;25.38;;
74632;SDS011;63139;52.018;8.552;2023-01-30T02:34:24;53.00;;;23.23;;
74632;SDS011;63139;52.018;8.552;2023-01-30T02:37:09;53.30;;;25.20;;
74632;SDS011;63139;52.018;8.552;2023-01-30T02:39:47;59.15;;;26.17;;
74632;SDS011;63139;52.018;8.552;2023-01-30T02:42:31;51.55;;;22.50;;
74632;SDS011;63139;52.018;8.552;2023-01-30T02:45:05;59.55;;;25.67;;
74632;SDS011;63139;52.018;8.552;2023-01-30T02:47:41;51.38;;;24.85;;
74632;SDS011;63139;52.018;8.552;2023-01-30T02:50:15;51.72;;;23.08;;
74632;SDS011;63139;52.018;8.552;2023-01-30T02:52:47;50.80;;;23.05;;
74632;SDS011;63139;52.018;8.552;2023-01-30T02:55:19;51.45;;;23.73;;
74632;SDS011;63139;52.018;8.552;2023-01-30T02:57:49;56.58;;;26.38;;
74632;SDS011;63139;52.018;8.552;2023-01-30T03:00:17;57.75;;;24.73;;
74632;SDS011;63139;52.018;8.552;2023-01-30T03:03:04;58.17;;;26.00;;
74632;SDS011;63139;52.018;8.552;2023-01-30T03:05:46;52.78;;;24.63;;
74632;SDS011;63139;52.018;8.552;2023-01-30T03:08:30;50.75;;;23.75;;
74632;SDS011;63139;52.018;8.552;2023-01-30T03:11:06;58.08;;;25.70;;
74632;SDS011;63139;52.018;8.552;2023-01-30T03:13:40;57.58;;;26.52;;
74632;SDS011;63139;52.018;8.552;2023-01-30T03:16:16;58.95;;;24.67;;
74632;SDS011;63139;52.018;8.552;2023-01-30T03:18:48;48.42;;;23.27;;
74632;SDS011;63139;52.018;8.552;2023-01-30T03:21:17;50.40;;;22.70;;
74632;SDS011;63139;52.018;8.552;2023-01-30T03:23:45;51.95;;;24.63;;
74632;SDS011;63139;52.018;8.552;2023-01-30T03:26:15;50.20;;;22.27;;
74632;SDS011;63139;52.018;8.552;2023-01-30T03:28:47;55.33;;;24.60;;
74632;SDS011;63139;52.018;8.552;2023-01-30T03:31:16;52.50;;;23.50;;
74632;SDS011;63139;52.018;8.552;2023-01-30T03:33:44;47.97;;;22.65;;
74632;SDS011;63139;52.018;8.552;2023-01-30T03:36:13;50.17;;;23.50;;
74632;SDS011;63139;52.018;8.552;2023-01-30T03:38:41;50.78;;;22.20;;
74632;SDS011;63139;52.018;8.552;2023-01-30T03:41:09;47.90;;;22.33;;
74632;SDS011;63139;52.018;8.552;2023-01-30T03:43:38;48.72;;;22.35;;
74632;SDS011;63139;52.018;8.552;2023-01-30T03:46:05;52.78;;;21.80;;
74632;SDS011;63139;52.018;8.552;2023-01-30T03:48:33;45.67;;;20.60;;
74632;SDS011;63139;52.018;8.552;2023-01-30T03:51:01;39.95;;;19.58;;
74632;SDS011;63139;52.018;8.552;2023-01-30T03:53:30;47.65;;;22.63;;
74632;SDS011;63139;52.018;8.552;2023-01-30T03:55:58;44.00;;;22.38;;
74632;SDS011;63139;52.018;8.552;2023-01-30T03:58:29;46.13;;;21.98;;
74632;SDS011;63139;52.018;8.552;2023-01-30T04:01:02;46.92;;;22.83;;
74632;SDS011;63139;52.018;8.552;2023-01-30T04:03:31;52.03;;;22.88;;
74632;SDS011;63139;52.018;8.552;2023-01-30T04:05:59;40.75;;;21.15;;
74632;SDS011;63139;52.018;8.552;2023-01-30T04:08:27;45.08;;;22.25;;
74632;SDS011;63139;52.018;8.552;2023-01-30T04:10:56;50.10;;;24.08;;
74632;SDS011;63139;52.018;8.552;2023-01-30T04:13:24;47.85;;;21.85;;
74632;SDS011;63139;52.018;8.552;2023-01-30T04:15:52;44.55;;;21.67;;
74632;SDS011;63139;52.018;8.552;2023-01-30T04:18:46;44.20;;;21.77;;
74632;SDS011;63139;52.018;8.552;2023-01-30T04:21:19;48.00;;;23.67;;
74632;SDS011;63139;52.018;8.552;2023-01-30T04:23:47;49.30;;;24.08;;
74632;SDS011;63139;52.018;8.552;2023-01-30T04:26:16;48.80;;;23.05;;
74632;SDS011;63139;52.018;8.552;2023-01-30T04:28:44;47.72;;;22.85;;
74632;SDS011;63139;52.018;8.552;2023-01-30T04:31:12;40.75;;;20.92;;
74632;SDS011;63139;52.018;8.552;2023-01-30T04:33:55;40.55;;;21.25;;
74632;SDS011;63139;52.018;8.552;2023-01-30T04:36:23;43.13;;;21.88;;
74632;SDS011;63139;52.018;8.552;2023-01-30T04:38:51;42.67;;;19.83;;
74632;SDS011;63139;52.018;8.552;2023-01-30T04:41:21;41.65;;;22.35;;
74632;SDS011;63139;52.018;8.552;2023-01-30T04:43:52;45.22;;;21.50;;
74632;SDS011;63139;52.018;8.552;2023-01-30T04:46:37;41.92;;;20.98;;
74632;SDS011;63139;52.018;8.552;2023-01-30T04:49:05;40.50;;;21.30;;
74632;SDS011;63139;52.018;8.552;2023-01-30T04:51:33;39.35;;;21.02;;
74632;SDS011;63139;52.018;8.552;2023-01-30T04:54:01;44.50;;;22.38;;
74632;SDS011;63139;52.018;8.552;2023-01-30T04:56:31;37.15;;;20.58;;
74632;SDS011;63139;52.018;8.552;2023-01-30T04:58:59;39.60;;;21.00;;
74632;SDS011;63139;52.018;8.552;2023-01-30T05:01:32;43.85;;;22.05;;
74632;SDS011;63139;52.018;8.552;2023-01-30T05:04:01;44.75;;;21.90;;
74632;SDS011;63139;52.018;8.552;2023-01-30T05:06:30;37.90;;;20.67;;
74632;SDS011;63139;52.018;8.552;2023-01-30T05:08:59;39.25;;;20.13;;
74632;SDS011;63139;52.018;8.552;2023-01-30T05:11:27;39.97;;;21.45;;
74632;SDS011;63139;52.018;8.552;2023-01-30T05:13:57;39.35;;;20.70;;
74632;SDS011;63139;52.018;8.552;2023-01-30T05:16:25;37.42;;;18.60;;
74632;SDS011;63139;52.018;8.552;2023-01-30T05:18:53;36.28;;;19.33;;
74632;SDS011;63139;52.018;8.552;2023-01-30T05:21:22;38.00;;;20.05;;
74632;SDS011;63139;52.018;8.552;2023-01-30T05:23:53;35.95;;;17.90;;
74632;SDS011;63139;52.018;8.552;2023-01-30T05:26:21;38.33;;;19.50;;
74632;SDS011;63139;52.018;8.552;2023-01-30T05:28:50;33.25;;;18.42;;
74632;SDS011;63139;52.018;8.552;2023-01-30T05:31:20;31.52;;;17.02;;
74632;SDS011;63139;52.018;8.552;2023-01-30T05:33:48;31.00;;;17.02;;
74632;SDS011;63139;52.018;8.552;2023-01-30T05:36:18;29.38;;;16.75;;
74632;SDS011;63139;52.018;8.552;2023-01-30T05:38:47;25.73;;;15.10;;
74632;SDS011;63139;52.018;8.552;2023-01-30T05:41:15;27.23;;;15.55;;
74632;SDS011;63139;52.018;8.552;2023-01-30T05:43:47;27.27;;;14.65;;
74632;SDS011;63139;52.018;8.552;2023-01-30T05:46:16;21.90;;;12.77;;
74632;SDS011;63139;52.018;8.552;2023-01-30T05:48:45;24.77;;;13.20;;
74632;SDS011;63139;52.018;8.552;2023-01-30T05:51:14;23.63;;;13.18;;
74632;SDS011;63139;52.018;8.552;2023-01-30T05:53:43;22.73;;;13.25;;
74632;SDS011;63139;52.018;8.552;2023-01-30T05:56:10;19.02;;;11.18;;
74632;SDS011;63139;52.018;8.552;2023-01-30T05:58:38;21.30;;;12.75;;
74632;SDS011;63139;52.018;8.552;2023-01-30T06:01:07;21.10;;;12.23;;
74632;SDS011;63139;52.018;8.552;2023-01-30T06:03:37;17.85;;;11.68;;
74632;SDS011;63139;52.018;8.552;2023-01-30T06:06:07;18.67;;;11.20;;
74632;SDS011;63139;52.018;8.552;2023-01-30T06:08:35;18.63;;;11.07;;
74632;SDS011;63139;52.018;8.552;2023-01-30T06:11:03;15.57;;;9.57;;
74632;SDS011;63139;52.018;8.552;2023-01-30T06:13:33;12.32;;;8.45;;
74632;SDS011;63139;52.018;8.552;2023-01-30T06:16:01;15.60;;;9.60;;
74632;SDS011;63139;52.018;8.552;2023-01-30T06:18:29;14.80;;;8.43;;
74632;SDS011;63139;52.018;8.552;2023-01-30T06:20:57;14.45;;;9.00;;
74632;SDS011;63139;52.018;8.552;2023-01-30T06:23:26;15.43;;;8.98;;
74632;SDS011;63139;52.018;8.552;2023-01-30T06:25:54;14.48;;;8.52;;
74632;SDS011;63139;52.018;8.552;2023-01-30T06:28:23;13.40;;;8.43;;
74632;SDS011;63139;52.018;8.552;2023-01-30T06:30:51;13.48;;;8.43;;
74632;SDS011;63139;52.018;8.552;2023-01-30T06:33:20;11.82;;;8.18;;
74632;SDS011;63139;52.018;8.552;2023-01-30T06:35:48;13.90;;;8.30;;
74632;SDS011;63139;52.018;8.552;2023-01-30T06:38:17;13.48;;;8.35;;
74632;SDS011;63139;52.018;8.552;2023-01-30T06:40:48;12.90;;;8.05;;
74632;SDS011;63139;52.018;8.552;2023-01-30T06:43:16;12.48;;;7.13;;
74632;SDS011;63139;52.018;8.552;2023-01-30T06:45:44;12.75;;;7.97;;
74632;SDS011;63139;52.018;8.552;2023-01-30T06:48:12;15.73;;;7.88;;
74632;SDS011;63139;52.018;8.552;2023-01-30T06:50:40;15.07;;;8.40;;
74632;SDS011;63139;52.018;8.552;2023-01-30T06:53:09;18.73;;;8.43;;
74632;SDS011;63139;52.018;8.552;2023-01-30T06:55:37;14.02;;;8.48;;
74632;SDS011;63139;52.018;8.552;2023-01-30T06:58:06;15.98;;;8.95;;
74632;SDS011;63139;52.018;8.552;2023-01-30T07:00:36;14.70;;;9.38;;
74632;SDS011;63139;52.018;8.552;2023-01-30T07:03:07;16.10;;;8.75;;
74632;SDS011;63139;52.018;8.552;2023-01-30T07:05:37;14.27;;;8.48;;
74632;SDS011;63139;52.018;8.552;2023-01-30T07:08:05;14.75;;;8.88;;
74632;SDS011;63139;52.018;8.552;2023-01-30T07:10:32;14.00;;;8.13;;
74632;SDS011;63139;52.018;8.552;2023-01-30T07:13:01;15.88;;;8.13;;
74632;SDS011;63139;52.018;8.552;2023-01-30T07:15:30;15.90;;;8.40;;
74632;SDS011;63139;52.018;8.552;2023-01-30T07:17:58;12.02;;;8.32;;
74632;SDS011;63139;52.018;8.552;2023-01-30T07:20:26;15.43;;;7.90;;
74632;SDS011;63139;52.018;8.552;2023-01-30T07:22:55;15.95;;;7.95;;
74632;SDS011;63139;52.018;8.552;2023-01-30T07:25:24;12.45;;;7.30;;
74632;SDS011;63139;52.018;8.552;2023-01-30T07:27:53;13.65;;;7.90;;
74632;SDS011;63139;52.018;8.552;2023-01-30T07:30:22;12.68;;;6.15;;
74632;SDS011;63139;52.018;8.552;2023-01-30T07:32:52;12.50;;;5.93;;
74632;SDS011;63139;52.018;8.552;2023-01-30T07:35:21;16.10;;;5.80;;
74632;SDS011;63139;52.018;8.552;2023-01-30T07:37:50;15.88;;;5.60;;
74632;SDS011;63139;52.018;8.552;2023-01-30T07:40:18;17.52;;;5.95;;
74632;SDS011;63139;52.018;8.552;2023-01-30T07:42:54;10.90;;;5.20;;
74632;SDS011;63139;52.018;8.552;2023-01-30T07:45:23;13.98;;;5.25;;
74632;SDS011;63139;52.018;8.552;2023-01-30T07:47:52;10.63;;;5.18;;
74632;SDS011;63139;52.018;8.552;2023-01-30T07:50:20;10.73;;;4.60;;
74632;SDS011;63139;52.018;8.552;2023-01-30T07:52:47;12.27;;;5.15;;
74632;SDS011;63139;52.018;8.552;2023-01-30T07:55:15;16.55;;;6.50;;
74632;SDS011;63139;52.018;8.552;2023-01-30T07:57:43;12.20;;;4.82;;
74632;SDS011;63139;52.018;8.552;2023-01-30T08:00:11;12.15;;;5.40;;
74632;SDS011;63139;52.018;8.552;2023-01-30T08:02:40;13.20;;;4.03;;
74632;SDS011;63139;52.018;8.552;2023-01-30T08:05:09;12.13;;;3.78;;
74632;SDS011;63139;52.018;8.552;2023-01-30T08:07:37;10.57;;;3.00;;
74632;SDS011;63139;52.018;8.552;2023-01-30T08:10:05;11.60;;;2.97;;
74632;SDS011;63139;52.018;8.552;2023-01-30T08:12:37;9.27;;;3.10;;
74632;SDS011;63139;52.018;8.552;2023-01-30T08:15:06;15.15;;;2.65;;
74632;SDS011;63139;52.018;8.552;2023-01-30T08:17:35;14.52;;;2.70;;
74632;SDS011;63139;52.018;8.552;2023-01-30T08:20:03;16.05;;;3.17;;
74632;SDS011;63139;52.018;8.552;2023-01-30T08:22:32;11.68;;;2.63;;
74632;SDS011;63139;52.018;8.552;2023-01-30T08:25:00;14.73;;;2.38;;
74632;SDS011;63139;52.018;8.552;2023-01-30T08:27:28;10.70;;;2.50;;
74632;SDS011;63139;52.018;8.552;2023-01-30T08:29:56;17.95;;;2.78;;
74632;SDS011;63139;52.018;8.552;2023-01-30T08:32:23;10.93;;;2.63;;
74632;SDS011;63139;52.018;8.552;2023-01-30T08:34:51;11.32;;;2.53;;
74632;SDS011;63139;52.018;8.552;2023-01-30T08:37:19;10.82;;;2.60;;
74632;SDS011;63139;52.018;8.552;2023-01-30T08:39:48;11.68;;;2.75;;
74632;SDS011;63139;52.018;8.552;2023-01-30T08:42:15;10.25;;;2.45;;
74632;SDS011;63139;52.018;8.552;2023-01-30T08:44:43;14.90;;;2.10;;
74632;SDS011;63139;52.018;8.552;2023-01-30T08:47:11;12.63;;;2.25;;
74632;SDS011;63139;52.018;8.552;2023-01-30T08:49:39;10.48;;;2.17;;
74632;SDS011;63139;52.018;8.552;2023-01-30T08:52:06;13.18;;;2.42;;
74632;SDS011;63139;52.018;8.552;2023-01-30T08:54:34;8.75;;;1.90;;
74632;SDS011;63139;52.018;8.552;2023-01-30T08:57:03;10.10;;;2.55;;
74632;SDS011;63139;52.018;8.552;2023-01-30T08:59:31;9.65;;;2.50;;
74632;SDS011;63139;52.018;8.552;2023-01-30T09:01:59;10.45;;;2.22;;
74632;SDS011;63139;52.018;8.552;2023-01-30T09:04:28;10.25;;;2.00;;
74632;SDS011;63139;52.018;8.552;2023-01-30T09:06:55;11.93;;;2.50;;
74632;SDS011;63139;52.018;8.552;2023-01-30T09:09:23;13.43;;;2.10;;
74632;SDS011;63139;52.018;8.552;2023-01-30T09:11:51;11.00;;;2.10;;
74632;SDS011;63139;52.018;8.552;2023-01-30T09:14:20;17.52;;;2.65;;
74632;SDS011;63139;52.018;8.552;2023-01-30T09:16:48;14.15;;;2.50;;
74632;SDS011;63139;52.018;8.552;2023-01-30T09:19:21;12.18;;;2.28;;
74632;SDS011;63139;52.018;8.552;2023-01-30T09:21:49;14.05;;;2.63;;
74632;SDS011;63139;52.018;8.552;2023-01-30T09:24:16;16.55;;;2.58;;
74632;SDS011;63139;52.018;8.552;2023-01-30T09:26:45;10.68;;;2.33;;
74632;SDS011;63139;52.018;8.552;2023-01-30T09:29:13;15.93;;;2.60;;
74632;SDS011;63139;52.018;8.552;2023-01-30T09:31:42;16.27;;;2.40;;
74632;SDS011;63139;52.018;8.552;2023-01-30T09:34:10;15.40;;;3.13;;
74632;SDS011;63139;52.018;8.552;2023-01-30T09:36:38;18.83;;;2.60;;
74632;SDS011;63139;52.018;8.552;2023-01-30T09:39:06;11.98;;;2.38;;
74632;SDS011;63139;52.018;8.552;2023-01-30T09:41:38;18.17;;;2.53;;
74632;SDS011;63139;52.018;8.552;2023-01-30T09:47:10;15.98;;;2.50;;
74632;SDS011;63139;52.018;8.552;2023-01-30T09:49:41;16.98;;;3.00;;
74632;SDS011;63139;52.018;8.552;2023-01-30T09:52:24;17.15;;;2.53;;
74632;SDS011;63139;52.018;8.552;2023-01-30T09:54:58;18.30;;;2.97;;
74632;SDS011;63139;52.018;8.552;2023-01-30T09:57:29;15.18;;;2.30;;
74632;SDS011;63139;52.018;8.552;2023-01-30T09:59:57;18.52;;;2.70;;
74632;SDS011;63139;52.018;8.552;2023-01-30T10:02:43;16.50;;;2.75;;
74632;SDS011;63139;52.018;8.552;2023-01-30T10:05:17;14.88;;;2.65;;
74632;SDS011;63139;52.018;8.552;2023-01-30T10:07:52;15.90;;;3.22;;
74632;SDS011;63139;52.018;8.552;2023-01-30T10:10:39;18.73;;;2.72;;
74632;SDS011;63139;52.018;8.552;2023-01-30T10:13:34;18.60;;;2.70;;
74632;SDS011;63139;52.018;8.552;2023-01-30T10:16:16;18.70;;;2.88;;
74632;SDS011;63139;52.018;8.552;2023-01-30T10:18:50;19.20;;;2.50;;
74632;SDS011;63139;52.018;8.552;2023-01-30T10:22:00;12.38;;;2.70;;
74632;SDS011;63139;52.018;8.552;2023-01-30T10:24:37;22.85;;;3.58;;
74632;SDS011;63139;52.018;8.552;2023-01-30T10:27:13;13.07;;;2.50;;
74632;SDS011;63139;52.018;8.552;2023-01-30T10:29:43;17.20;;;2.83;;
74632;SDS011;63139;52.018;8.552;2023-01-30T10:32:15;15.55;;;2.40;;
74632;SDS011;63139;52.018;8.552;2023-01-30T10:34:48;19.27;;;2.70;;
74632;SDS011;63139;52.018;8.552;2023-01-30T10:37:21;13.77;;;2.63;;
74632;SDS011;63139;52.018;8.552;2023-01-30T10:39:55;20.00;;;3.17;;
74632;SDS011;63139;52.018;8.552;2023-01-30T10:42:30;21.45;;;3.58;;
74632;SDS011;63139;52.018;8.552;2023-01-30T10:45:08;14.60;;;2.60;;
74632;SDS011;63139;52.018;8.552;2023-01-30T10:47:41;18.67;;;2.50;;
74632;SDS011;63139;52.018;8.552;2023-01-30T10:50:18;16.25;;;2.97;;
74632;SDS011;63139;52.018;8.552;2023-01-30T10:52:51;20.30;;;2.90;;
74632;SDS011;63139;52.018;8.552;2023-01-30T10:55:28;21.35;;;2.97;;
74632;SDS011;63139;52.018;8.552;2023-01-30T10:58:05;17.13;;;2.65;;
74632;SDS011;63139;52.018;8.552;2023-01-30T11:00:40;16.80;;;2.63;;
74632;SDS011;63139;52.018;8.552;2023-01-30T11:03:15;18.17;;;2.97;;
74632;SDS011;63139;52.018;8.552;2023-01-30T11:05:50;24.30;;;2.72;;
74632;SDS011;63139;52.018;8.552;2023-01-30T11:08:20;19.65;;;2.83;;
74632;SDS011;63139;52.018;8.552;2023-01-30T11:10:50;15.50;;;2.60;;
74632;SDS011;63139;52.018;8.552;2023-01-30T11:13:19;19.60;;;2.75;;
74632;SDS011;63139;52.018;8.552;2023-01-30T11:15:50;20.42;;;3.05;;
74632;SDS011;63139;52.018;8.552;2023-01-30T11:18:20;24.92;;;3.22;;
74632;SDS011;63139;52.018;8.552;2023-01-30T11:21:13;19.30;;;2.72;;
74632;SDS011;63139;52.018;8.552;2023-01-30T11:23:50;15.40;;;2.53;;
74632;SDS011;63139;52.018;8.552;2023-01-30T11:26:20;20.05;;;2.55;;
74632;SDS011;63139;52.018;8.552;2023-01-30T11:28:57;14.25;;;2.35;;
74632;SDS011;63139;52.018;8.552;2023-01-30T11:31:26;14.40;;;2.40;;
74632;SDS011;63139;52.018;8.552;2023-01-30T11:34:11;17.73;;;3.25;;
74632;SDS011;63139;52.018;8.552;2023-01-30T11:36:42;18.83;;;2.85;;
74632;SDS011;63139;52.018;8.552;2023-01-30T11:39:19;15.45;;;2.50;;
74632;SDS011;63139;52.018;8.552;2023-01-30T11:41:56;17.50;;;2.60;;
74632;SDS011;63139;52.018;8.552;2023-01-30T11:44:27;16.10;;;3.00;;
74632;SDS011;63139;52.018;8.552;2023-01-30T11:46:57;13.77;;;2.45;;
74632;SDS011;63139;52.018;8.552;2023-01-30T11:49:27;13.32;;;2.42;;
74632;SDS011;63139;52.018;8.552;2023-01-30T11:52:24;18.73;;;3.03;;
74632;SDS011;63139;52.018;8.552;2023-01-30T11:54:57;15.75;;;2.28;;
74632;SDS011;63139;52.018;8.552;2023-01-30T11:57:37;25.75;;;3.88;;
74632;SDS011;63139;52.018;8.552;2023-01-30T12:00:11;13.73;;;2.95;;
74632;SDS011;63139;52.018;8.552;2023-01-30T12:02:44;17.98;;;3.15;;
74632;SDS011;63139;52.018;8.552;2023-01-30T12:05:20;16.33;;;3.15;;
74632;SDS011;63139;52.018;8.552;2023-01-30T12:07:53;18.27;;;2.83;;
74632;SDS011;63139;52.018;8.552;2023-01-30T12:13:10;16.90;;;2.58;;
74632;SDS011;63139;52.018;8.552;2023-01-30T12:15:42;16.52;;;2.50;;
74632;SDS011;63139;52.018;8.552;2023-01-30T12:18:15;18.20;;;3.45;;
74632;SDS011;63139;52.018;8.552;2023-01-30T12:20:51;13.80;;;2.97;;
74632;SDS011;63139;52.018;8.552;2023-01-30T12:23:29;20.92;;;2.85;;
74632;SDS011;63139;52.018;8.552;2023-01-30T12:26:06;19.20;;;3.28;;
74632;SDS011;63139;52.018;8.552;2023-01-30T12:28:40;17.27;;;3.42;;
74632;SDS011;63139;52.018;8.552;2023-01-30T12:31:15;14.98;;;2.85;;
74632;SDS011;63139;52.018;8.552;2023-01-30T12:33:46;15.27;;;3.03;;
74632;SDS011;63139;52.018;8.552;2023-01-30T12:36:17;22.08;;;2.95;;
74632;SDS011;63139;52.018;8.552;2023-01-30T12:38:58;19.98;;;3.22;;
74632;SDS011;63139;52.018;8.552;2023-01-30T12:41:35;26.60;;;3.83;;
74632;SDS011;63139;52.018;8.552;2023-01-30T12:44:20;9.02;;;2.30;;
74632;SDS011;63139;52.018;8.552;2023-01-30T12:47:04;16.35;;;3.00;;
74632;SDS011;63139;52.018;8.552;2023-01-30T12:49:47;16.60;;;2.70;;
74632;SDS011;63139;52.018;8.552;2023-01-30T12:52:36;19.67;;;3.20;;
74632;SDS011;63139;52.018;8.552;2023-01-30T12:55:20;15.55;;;2.33;;
74632;SDS011;63139;52.018;8.552;2023-01-30T12:57:58;16.95;;;2.13;;
74632;SDS011;63139;52.018;8.552;2023-01-30T13:00:35;11.18;;;2.33;;
74632;SDS011;63139;52.018;8.552;2023-01-30T13:03:22;11.93;;;1.70;;
74632;SDS011;63139;52.018;8.552;2023-01-30T13:05:59;13.18;;;1.85;;
74632;SDS011;63139;52.018;8.552;2023-01-30T13:08:43;12.73;;;1.83;;
74632;SDS011;63139;52.018;8.552;2023-01-30T13:11:29;9.38;;;1.63;;
74632;SDS011;63139;52.018;8.552;2023-01-30T13:14:08;5.93;;;1.50;;
74632;SDS011;63139;52.018;8.552;2023-01-30T13:16:47;3.90;;;1.05;;
74632;SDS011;63139;52.018;8.552;2023-01-30T13:19:28;7.97;;;1.60;;
74632;SDS011;63139;52.018;8.552;2023-01-30T13:22:08;4.25;;;1.08;;
74632;SDS011;63139;52.018;8.552;2023-01-30T13:24:44;6.53;;;1.85;;
74632;SDS011;63139;52.018;8.552;2023-01-30T13:27:20;9.38;;;2.28;;
74632;SDS011;63139;52.018;8.552;2023-01-30T13:29:50;14.63;;;2.28;;
74632;SDS011;63139;52.018;8.552;2023-01-30T13:32:23;11.38;;;2.30;;
74632;SDS011;63139;52.018;8.552;2023-01-30T13:34:59;15.68;;;2.50;;
74632;SDS011;63139;52.018;8.552;2023-01-30T13:37:29;16.55;;;3.08;;
74632;SDS011;63139;52.018;8.552;2023-01-30T13:39:59;13.68;;;2.03;;
74632;SDS011;63139;52.018;8.552;2023-01-30T13:42:35;14.45;;;2.17;;
74632;SDS011;63139;52.018;8.552;2023-01-30T13:45:10;14.23;;;2.45;;
74632;SDS011;63139;52.018;8.552;2023-01-30T13:47:45;9.77;;;2.20;;
74632;SDS011;63139;52.018;8.552;2023-01-30T13:53:17;9.38;;;1.70;;
74632;SDS011;63139;52.018;8.552;2023-01-30T13:55:50;9.98;;;1.73;;
74632;SDS011;63139;52.018;8.552;2023-01-30T13:58:33;6.32;;;1.60;;
74632;SDS011;63139;52.018;8.552;2023-01-30T14:01:09;10.38;;;2.63;;
74632;SDS011;63139;52.018;8.552;2023-01-30T14:03:37;8.75;;;1.63;;
74632;SDS011;63139;52.018;8.552;2023-01-30T14:09:00;8.15;;;1.77;;
74632;SDS011;63139;52.018;8.552;2023-01-30T14:11:33;8.60;;;1.95;;
74632;SDS011;63139;52.018;8.552;2023-01-30T14:14:21;11.93;;;1.90;;
74632;SDS011;63139;52.018;8.552;2023-01-30T14:16:53;14.88;;;2.13;;
74632;SDS011;63139;52.018;8.552;2023-01-30T14:19:30;15.65;;;2.22;;
74632;SDS011;63139;52.018;8.552;2023-01-30T14:22:01;14.63;;;2.25;;
74632;SDS011;63139;52.018;8.552;2023-01-30T14:24:43;11.45;;;2.03;;
74632;SDS011;63139;52.018;8.552;2023-01-30T14:27:21;13.57;;;2.00;;
74632;SDS011;63139;52.018;8.552;2023-01-30T14:29:54;6.70;;;1.65;;
74632;SDS011;63139;52.018;8.552;2023-01-30T14:32:49;9.65;;;2.33;;
74632;SDS011;63139;52.018;8.552;2023-01-30T14:35:23;9.82;;;1.77;;
74632;SDS011;63139;52.018;8.552;2023-01-30T14:40:43;11.30;;;2.00;;
74632;SDS011;63139;52.018;8.552;2023-01-30T14:49:30;16.23;;;1.83;;
74632;SDS011;63139;52.018;8.552;2023-01-30T14:51:59;6.03;;;1.35;;
74632;SDS011;63139;52.018;8.552;2023-01-30T14:54:30;5.95;;;1.38;;
74632;SDS011;63139;52.018;8.552;2023-01-30T14:57:15;7.53;;;1.60;;
74632;SDS011;63139;52.018;8.552;2023-01-30T14:59:47;11.15;;;2.25;;
74632;SDS011;63139;52.018;8.552;2023-01-30T15:02:40;7.47;;;2.00;;
74632;SDS011;63139;52.018;8.552;2023-01-30T15:05:13;8.32;;;1.65;;
74632;SDS011;63139;52.018;8.552;2023-01-30T15:07:46;13.43;;;2.03;;
74632;SDS011;63139;52.018;8.552;2023-01-30T15:10:19;11.95;;;1.92;;
74632;SDS011;63139;52.018;8.552;2023-01-30T15:15:54;8.98;;;2.00;;
74632;SDS011;63139;52.018;8.552;2023-01-30T15:18:39;13.52;;;1.98;;
74632;SDS011;63139;52.018;8.552;2023-01-30T15:24:11;9.85;;;1.90;;
74632;SDS011;63139;52.018;8.552;2023-01-30T15:26:53;8.13;;;2.00;;
74632;SDS011;63139;52.018;8.552;2023-01-30T15:29:30;12.30;;;1.87;;
74632;SDS011;63139;52.018;8.552;2023-01-30T15:32:15;12.25;;;2.50;;
74632;SDS011;63139;52.018;8.552;2023-01-30T15:34:50;8.55;;;1.95;;